sensor_id;sensor_type;location;lat;lon;timestamp;pressure;altitude;pressure_sealevel;temperature;humidity
81937;BME280;71432;56.558;9.036;2023-07-28T00:02:14;100307.06;;;23.64;47.86
81937;BME280;71432;56.558;9.036;2023-07-28T00:04:39;100297.50;;;23.63;48.00
81937;BME280;71432;56.558;9.036;2023-07-28T00:07:05;100289.94;;;23.60;47.94
81937;BME280;71432;56.558;9.036;2023-07-28T00:09:30;100294.22;;;23.61;47.94
81937;BME280;71432;56.558;9.036;2023-07-28T00:12:00;100296.03;;;23.60;48.21
81937;BME280;71432;56.558;9.036;2023-07-28T00:14:26;100298.84;;;23.59;48.13
81937;BME280;71432;56.558;9.036;2023-07-28T00:16:55;100298.53;;;23.62;48.40
81937;BME280;71432;56.558;9.036;2023-07-28T00:19:21;100292.75;;;23.58;48.22
81937;BME280;71432;56.558;9.036;2023-07-28T00:21:50;100296.22;;;23.59;47.99
81937;BME280;71432;56.558;9.036;2023-07-28T00:24:17;100290.09;;;23.58;48.16
81937;BME280;71432;56.558;9.036;2023-07-28T00:26:43;100290.28;;;23.57;48.62
81937;BME280;71432;56.558;9.036;2023-07-28T00:29:08;100295.56;;;23.57;48.30
81937;BME280;71432;56.558;9.036;2023-07-28T00:31:34;100294.75;;;23.56;48.34
81937;BME280;71432;56.558;9.036;2023-07-28T00:34:01;100292.28;;;23.55;48.29
81937;BME280;71432;56.558;9.036;2023-07-28T00:36:26;100295.91;;;23.54;48.33
81937;BME280;71432;56.558;9.036;2023-07-28T00:38:52;100298.53;;;23.54;48.28
81937;BME280;71432;56.558;9.036;2023-07-28T00:41:17;100292.44;;;23.53;48.18
81937;BME280;71432;56.558;9.036;2023-07-28T00:43:42;100292.63;;;23.52;48.61
81937;BME280;71432;56.558;9.036;2023-07-28T00:46:10;100295.91;;;23.54;48.32
81937;BME280;71432;56.558;9.036;2023-07-28T00:48:36;100297.72;;;23.53;48.21
81937;BME280;71432;56.558;9.036;2023-07-28T00:51:01;100294.44;;;23.51;48.36
81937;BME280;71432;56.558;9.036;2023-07-28T00:53:27;100294.44;;;23.51;48.48
81937;BME280;71432;56.558;9.036;2023-07-28T00:55:54;100293.63;;;23.51;48.16
81937;BME280;71432;56.558;9.036;2023-07-28T00:58:20;100296.44;;;23.49;48.41
81937;BME280;71432;56.558;9.036;2023-07-28T01:00:45;100299.25;;;23.47;48.40
81937;BME280;71432;56.558;9.036;2023-07-28T01:03:10;100297.25;;;23.49;48.20
81937;BME280;71432;56.558;9.036;2023-07-28T01:06:14;100295.44;;;23.50;48.32
81937;BME280;71432;56.558;9.036;2023-07-28T01:08:46;100300.09;;;23.48;48.32
81937;BME280;71432;56.558;9.036;2023-07-28T01:11:14;100293.16;;;23.47;48.51
81937;BME280;71432;56.558;9.036;2023-07-28T01:13:40;100293.16;;;23.47;48.46
81937;BME280;71432;56.558;9.036;2023-07-28T01:16:05;100295.97;;;23.45;48.42
81937;BME280;71432;56.558;9.036;2023-07-28T01:18:31;100290.50;;;23.47;48.32
81937;BME280;71432;56.558;9.036;2023-07-28T01:21:01;100293.16;;;23.47;48.29
81937;BME280;71432;56.558;9.036;2023-07-28T01:26:16;100290.84;;;23.44;48.15
81937;BME280;71432;56.558;9.036;2023-07-28T01:28:42;100288.19;;;23.44;48.22
81937;BME280;71432;56.558;9.036;2023-07-28T01:31:08;100280.59;;;23.41;48.21
81937;BME280;71432;56.558;9.036;2023-07-28T01:33:34;100291.00;;;23.42;48.73
81937;BME280;71432;56.558;9.036;2023-07-28T01:36:00;100293.81;;;23.41;48.75
81937;BME280;71432;56.558;9.036;2023-07-28T01:38:27;100294.78;;;23.40;48.50
81937;BME280;71432;56.558;9.036;2023-07-28T01:40:52;100294.78;;;23.40;48.46
81937;BME280;71432;56.558;9.036;2023-07-28T01:43:18;100298.25;;;23.40;48.61
81937;BME280;71432;56.558;9.036;2023-07-28T01:45:43;100292.34;;;23.38;48.60
81937;BME280;71432;56.558;9.036;2023-07-28T01:48:09;100293.16;;;23.39;48.50
81937;BME280;71432;56.558;9.036;2023-07-28T01:50:35;100289.72;;;23.38;48.55
81937;BME280;71432;56.558;9.036;2023-07-28T01:53:00;100287.38;;;23.35;48.53
81937;BME280;71432;56.558;9.036;2023-07-28T01:55:26;100294.31;;;23.36;48.68
81937;BME280;71432;56.558;9.036;2023-07-28T01:57:57;100297.63;;;23.38;48.68
81937;BME280;71432;56.558;9.036;2023-07-28T02:00:23;100298.63;;;23.37;48.76
81937;BME280;71432;56.558;9.036;2023-07-28T02:02:48;100295.16;;;23.37;48.82
81937;BME280;71432;56.558;9.036;2023-07-28T02:05:14;100301.25;;;23.37;48.33
81937;BME280;71432;56.558;9.036;2023-07-28T02:07:39;100295.31;;;23.35;48.63
81937;BME280;71432;56.558;9.036;2023-07-28T02:10:05;100299.78;;;23.35;49.10
81937;BME280;71432;56.558;9.036;2023-07-28T02:12:30;100291.06;;;23.34;48.70
81937;BME280;71432;56.558;9.036;2023-07-28T02:14:56;100294.31;;;23.36;48.90
81937;BME280;71432;56.558;9.036;2023-07-28T02:17:21;100293.69;;;23.34;48.92
81937;BME280;71432;56.558;9.036;2023-07-28T02:19:46;100285.94;;;23.33;48.60
81937;BME280;71432;56.558;9.036;2023-07-28T02:22:12;100286.91;;;23.32;48.63
81937;BME280;71432;56.558;9.036;2023-07-28T02:24:37;100289.56;;;23.32;48.71
81937;BME280;71432;56.558;9.036;2023-07-28T02:27:03;100286.75;;;23.33;48.89
81937;BME280;71432;56.558;9.036;2023-07-28T02:29:28;100286.09;;;23.31;48.60
81937;BME280;71432;56.558;9.036;2023-07-28T02:31:54;100291.38;;;23.31;48.80
81937;BME280;71432;56.558;9.036;2023-07-28T02:34:19;100291.22;;;23.33;48.93
81937;BME280;71432;56.558;9.036;2023-07-28T02:36:44;100290.56;;;23.31;48.91
81937;BME280;71432;56.558;9.036;2023-07-28T02:39:10;100293.38;;;23.29;48.98
81937;BME280;71432;56.558;9.036;2023-07-28T02:41:35;100299.50;;;23.30;48.82
81937;BME280;71432;56.558;9.036;2023-07-28T02:44:00;100294.22;;;23.30;48.61
81937;BME280;71432;56.558;9.036;2023-07-28T02:46:25;100303.94;;;23.29;48.73
81937;BME280;71432;56.558;9.036;2023-07-28T02:48:51;100301.47;;;23.28;48.75
81937;BME280;71432;56.558;9.036;2023-07-28T02:51:16;100308.41;;;23.29;49.00
81937;BME280;71432;56.558;9.036;2023-07-28T02:53:42;100300.66;;;23.27;48.55
81937;BME280;71432;56.558;9.036;2023-07-28T02:56:07;100306.75;;;23.28;48.57
81937;BME280;71432;56.558;9.036;2023-07-28T02:58:32;100306.75;;;23.28;48.78
81937;BME280;71432;56.558;9.036;2023-07-28T03:01:00;100308.56;;;23.27;48.67
81937;BME280;71432;56.558;9.036;2023-07-28T03:03:25;100312.19;;;23.26;48.56
81937;BME280;71432;56.558;9.036;2023-07-28T03:05:52;100308.56;;;23.27;48.54
81937;BME280;71432;56.558;9.036;2023-07-28T03:08:19;100308.75;;;23.26;48.53
81937;BME280;71432;56.558;9.036;2023-07-28T03:10:48;100313.22;;;23.25;48.65
81937;BME280;71432;56.558;9.036;2023-07-28T03:13:13;100310.56;;;23.25;48.69
81937;BME280;71432;56.558;9.036;2023-07-28T03:15:38;100313.22;;;23.25;48.84
81937;BME280;71432;56.558;9.036;2023-07-28T03:18:04;100318.50;;;23.25;48.68
81937;BME280;71432;56.558;9.036;2023-07-28T03:20:30;100314.22;;;23.24;48.74
81937;BME280;71432;56.558;9.036;2023-07-28T03:22:55;100319.50;;;23.24;48.86
81937;BME280;71432;56.558;9.036;2023-07-28T03:25:21;100316.84;;;23.24;48.56
81937;BME280;71432;56.558;9.036;2023-07-28T03:27:46;100314.38;;;23.23;48.70
81937;BME280;71432;56.558;9.036;2023-07-28T03:30:12;100310.75;;;23.24;48.57
81937;BME280;71432;56.558;9.036;2023-07-28T03:32:38;100317.84;;;23.23;48.64
81937;BME280;71432;56.558;9.036;2023-07-28T03:35:03;100308.25;;;23.22;48.60
81937;BME280;71432;56.558;9.036;2023-07-28T03:37:33;100315.03;;;23.25;48.69
81937;BME280;71432;56.558;9.036;2023-07-28T03:39:59;100311.56;;;23.24;48.63
81937;BME280;71432;56.558;9.036;2023-07-28T03:42:25;100313.38;;;23.24;48.48
81937;BME280;71432;56.558;9.036;2023-07-28T03:44:50;100311.72;;;23.23;48.79
81937;BME280;71432;56.558;9.036;2023-07-28T03:47:16;100313.38;;;23.24;48.71
81937;BME280;71432;56.558;9.036;2023-07-28T03:49:41;100315.19;;;23.23;48.47
81937;BME280;71432;56.558;9.036;2023-07-28T03:52:13;100321.31;;;23.24;48.54
81937;BME280;71432;56.558;9.036;2023-07-28T03:54:38;100314.84;;;23.26;48.38
81937;BME280;71432;56.558;9.036;2023-07-28T03:57:04;100310.56;;;23.25;48.47
81937;BME280;71432;56.558;9.036;2023-07-28T03:59:29;100310.38;;;23.27;48.68
81937;BME280;71432;56.558;9.036;2023-07-28T04:01:54;100311.22;;;23.27;48.60
81937;BME280;71432;56.558;9.036;2023-07-28T04:04:22;100318.31;;;23.27;48.36
81937;BME280;71432;56.558;9.036;2023-07-28T04:06:49;100318.16;;;23.28;48.23
81937;BME280;71432;56.558;9.036;2023-07-28T04:09:23;100315.50;;;23.28;48.53
81937;BME280;71432;56.558;9.036;2023-07-28T04:11:49;100313.69;;;23.29;48.08
81937;BME280;71432;56.558;9.036;2023-07-28T04:14:14;100320.63;;;23.30;48.19
81937;BME280;71432;56.558;9.036;2023-07-28T04:16:40;100324.09;;;23.30;48.12
81937;BME280;71432;56.558;9.036;2023-07-28T04:19:05;100318.63;;;23.32;48.08
81937;BME280;71432;56.558;9.036;2023-07-28T04:21:33;100322.09;;;23.32;48.05
81937;BME280;71432;56.558;9.036;2023-07-28T04:23:58;100327.19;;;23.34;48.00
81937;BME280;71432;56.558;9.036;2023-07-28T04:26:24;100321.09;;;23.33;47.79
81937;BME280;71432;56.558;9.036;2023-07-28T04:28:50;100325.38;;;23.34;47.99
81937;BME280;71432;56.558;9.036;2023-07-28T04:31:15;100325.19;;;23.36;47.69
81937;BME280;71432;56.558;9.036;2023-07-28T04:33:41;100329.31;;;23.38;47.79
81937;BME280;71432;56.558;9.036;2023-07-28T04:36:07;100331.63;;;23.41;47.64
81937;BME280;71432;56.558;9.036;2023-07-28T04:38:32;100336.06;;;23.41;47.99
81937;BME280;71432;56.558;9.036;2023-07-28T04:40:57;100337.72;;;23.42;47.87
81937;BME280;71432;56.558;9.036;2023-07-28T04:43:31;100334.09;;;23.43;47.70
81937;BME280;71432;56.558;9.036;2023-07-28T04:45:56;100340.22;;;23.43;47.71
81937;BME280;71432;56.558;9.036;2023-07-28T04:48:22;100333.78;;;23.46;47.82
81937;BME280;71432;56.558;9.036;2023-07-28T04:50:48;100342.53;;;23.46;47.47
81937;BME280;71432;56.558;9.036;2023-07-28T04:53:15;100331.78;;;23.48;47.50
81937;BME280;71432;56.558;9.036;2023-07-28T04:55:40;100339.53;;;23.49;47.51
81937;BME280;71432;56.558;9.036;2023-07-28T04:58:06;100337.72;;;23.50;47.78
81937;BME280;71432;56.558;9.036;2023-07-28T05:00:31;100341.84;;;23.53;47.74
81937;BME280;71432;56.558;9.036;2023-07-28T05:02:56;100339.19;;;23.53;47.42
81937;BME280;71432;56.558;9.036;2023-07-28T05:05:22;100339.19;;;23.53;47.42
81937;BME280;71432;56.558;9.036;2023-07-28T05:07:47;100347.75;;;23.55;47.24
81937;BME280;71432;56.558;9.036;2023-07-28T05:10:13;100346.78;;;23.56;47.56
81937;BME280;71432;56.558;9.036;2023-07-28T05:12:38;100348.41;;;23.57;47.44
81937;BME280;71432;56.558;9.036;2023-07-28T05:15:05;100353.19;;;23.61;47.43
81937;BME280;71432;56.558;9.036;2023-07-28T05:17:30;100353.19;;;23.61;47.33
81937;BME280;71432;56.558;9.036;2023-07-28T05:19:59;100347.72;;;23.63;47.39
81937;BME280;71432;56.558;9.036;2023-07-28T05:22:25;100349.34;;;23.64;47.23
81937;BME280;71432;56.558;9.036;2023-07-28T05:24:51;100346.38;;;23.67;47.10
81937;BME280;71432;56.558;9.036;2023-07-28T05:27:16;100347.38;;;23.66;47.46
81937;BME280;71432;56.558;9.036;2023-07-28T05:29:41;100353.78;;;23.71;47.16
81937;BME280;71432;56.558;9.036;2023-07-28T05:32:07;100352.16;;;23.70;47.19
81937;BME280;71432;56.558;9.036;2023-07-28T05:34:32;100351.13;;;23.71;47.30
81937;BME280;71432;56.558;9.036;2023-07-28T05:36:58;100355.25;;;23.74;46.97
81937;BME280;71432;56.558;9.036;2023-07-28T05:39:23;100350.78;;;23.74;47.12
81937;BME280;71432;56.558;9.036;2023-07-28T05:41:48;100348.78;;;23.76;47.08
81937;BME280;71432;56.558;9.036;2023-07-28T05:44:14;100353.75;;;23.79;46.86
81937;BME280;71432;56.558;9.036;2023-07-28T05:46:40;100361.47;;;23.81;46.85
81937;BME280;71432;56.558;9.036;2023-07-28T05:49:05;100349.28;;;23.80;47.12
81937;BME280;71432;56.558;9.036;2023-07-28T05:51:31;100346.44;;;23.81;46.95
81937;BME280;71432;56.558;9.036;2023-07-28T05:53:56;100352.19;;;23.85;46.93
81937;BME280;71432;56.558;9.036;2023-07-28T05:56:22;100353.84;;;23.86;46.97
81937;BME280;71432;56.558;9.036;2023-07-28T05:58:48;100353.69;;;23.87;46.69
81937;BME280;71432;56.558;9.036;2023-07-28T06:01:16;100353.53;;;23.89;46.81
81937;BME280;71432;56.558;9.036;2023-07-28T06:03:42;100357.78;;;23.90;46.71
81937;BME280;71432;56.558;9.036;2023-07-28T06:06:08;100356.78;;;23.91;46.96
81937;BME280;71432;56.558;9.036;2023-07-28T06:08:34;100359.06;;;23.94;46.62
81937;BME280;71432;56.558;9.036;2023-07-28T06:10:59;100362.53;;;23.94;46.76
81937;BME280;71432;56.558;9.036;2023-07-28T06:13:25;100356.09;;;23.97;46.76
81937;BME280;71432;56.558;9.036;2023-07-28T06:15:53;100358.56;;;23.99;46.58
81937;BME280;71432;56.558;9.036;2023-07-28T06:18:22;100368.13;;;24.00;46.89
81937;BME280;71432;56.558;9.036;2023-07-28T06:20:48;100357.38;;;24.01;46.85
81937;BME280;71432;56.558;9.036;2023-07-28T06:23:13;100370.44;;;24.03;46.67
81937;BME280;71432;56.558;9.036;2023-07-28T06:25:39;100363.97;;;24.05;46.73
81937;BME280;71432;56.558;9.036;2023-07-28T06:28:12;100372.56;;;24.07;46.90
81937;BME280;71432;56.558;9.036;2023-07-28T06:30:38;100372.56;;;24.07;46.76
81937;BME280;71432;56.558;9.036;2023-07-28T06:33:06;100377.66;;;24.09;46.63
81937;BME280;71432;56.558;9.036;2023-07-28T06:35:32;100369.19;;;24.13;46.52
81937;BME280;71432;56.558;9.036;2023-07-28T06:40:28;100382.38;;;24.21;46.67
81937;BME280;71432;56.558;9.036;2023-07-28T06:42:53;100374.94;;;24.25;46.51
81937;BME280;71432;56.558;9.036;2023-07-28T06:45:21;100380.22;;;24.25;46.40
81937;BME280;71432;56.558;9.036;2023-07-28T06:47:47;100379.88;;;24.28;46.40
81937;BME280;71432;56.558;9.036;2023-07-28T06:50:13;100375.03;;;24.31;46.36
81937;BME280;71432;56.558;9.036;2023-07-28T06:52:38;100378.34;;;24.33;46.36
81937;BME280;71432;56.558;9.036;2023-07-28T06:55:07;100376.31;;;24.35;46.52
81937;BME280;71432;56.558;9.036;2023-07-28T06:57:32;100385.75;;;24.38;46.54
81937;BME280;71432;56.558;9.036;2023-07-28T07:00:00;100383.94;;;24.39;46.21
81937;BME280;71432;56.558;9.036;2023-07-28T07:02:25;100379.47;;;24.39;46.50
81937;BME280;71432;56.558;9.036;2023-07-28T07:04:51;100384.22;;;24.44;46.42
81937;BME280;71432;56.558;9.036;2023-07-28T07:07:16;100386.50;;;24.47;46.38
81937;BME280;71432;56.558;9.036;2023-07-28T07:09:44;100387.31;;;24.47;46.17
81937;BME280;71432;56.558;9.036;2023-07-28T07:12:10;100387.94;;;24.49;46.28
81937;BME280;71432;56.558;9.036;2023-07-28T07:14:38;100392.25;;;24.50;46.17
81937;BME280;71432;56.558;9.036;2023-07-28T07:17:04;100399.81;;;24.53;46.09
81937;BME280;71432;56.558;9.036;2023-07-28T07:19:29;100391.72;;;24.55;45.96
81937;BME280;71432;56.558;9.036;2023-07-28T07:21:55;100392.16;;;24.58;46.01
81937;BME280;71432;56.558;9.036;2023-07-28T07:24:21;100395.47;;;24.60;46.25
81937;BME280;71432;56.558;9.036;2023-07-28T07:26:46;100382.25;;;24.60;46.00
81937;BME280;71432;56.558;9.036;2023-07-28T07:29:11;100391.84;;;24.61;46.20
81937;BME280;71432;56.558;9.036;2023-07-28T07:31:37;100393.66;;;24.61;46.36
81937;BME280;71432;56.558;9.036;2023-07-28T07:34:03;100390.19;;;24.60;46.44
81937;BME280;71432;56.558;9.036;2023-07-28T07:36:32;100397.97;;;24.62;46.42
81937;BME280;71432;56.558;9.036;2023-07-28T07:38:58;100404.25;;;24.61;46.44
81937;BME280;71432;56.558;9.036;2023-07-28T07:41:24;100404.03;;;24.62;46.35
81937;BME280;71432;56.558;9.036;2023-07-28T07:43:51;100407.50;;;24.63;46.33
81937;BME280;71432;56.558;9.036;2023-07-28T07:46:17;100402.88;;;24.65;46.25
81937;BME280;71432;56.558;9.036;2023-07-28T07:48:47;100410.47;;;24.68;46.05
81937;BME280;71432;56.558;9.036;2023-07-28T07:51:13;100417.22;;;24.70;46.17
81937;BME280;71432;56.558;9.036;2023-07-28T07:53:38;100420.50;;;24.72;46.16
81937;BME280;71432;56.558;9.036;2023-07-28T07:56:06;100421.16;;;24.74;46.06
81937;BME280;71432;56.558;9.036;2023-07-28T07:58:35;100416.69;;;24.75;46.13
81937;BME280;71432;56.558;9.036;2023-07-28T08:01:00;100423.59;;;24.76;46.21
81937;BME280;71432;56.558;9.036;2023-07-28T08:03:28;100423.59;;;24.76;45.90
81937;BME280;71432;56.558;9.036;2023-07-28T08:05:54;100420.97;;;24.76;46.12
81937;BME280;71432;56.558;9.036;2023-07-28T08:08:22;100426.75;;;24.79;45.82
81937;BME280;71432;56.558;9.036;2023-07-28T08:10:51;100431.00;;;24.80;46.30
81937;BME280;71432;56.558;9.036;2023-07-28T08:13:17;100429.94;;;24.75;45.43
81937;BME280;71432;56.558;9.036;2023-07-28T08:15:43;100432.22;;;24.78;45.75
81937;BME280;71432;56.558;9.036;2023-07-28T08:18:08;100430.84;;;24.82;46.05
81937;BME280;71432;56.558;9.036;2023-07-28T08:20:34;100439.88;;;24.73;45.24
81937;BME280;71432;56.558;9.036;2023-07-28T08:23:01;100428.81;;;24.69;44.10
81937;BME280;71432;56.558;9.036;2023-07-28T08:25:27;100428.16;;;24.67;43.82
81937;BME280;71432;56.558;9.036;2023-07-28T08:27:52;100421.56;;;24.63;44.33
81937;BME280;71432;56.558;9.036;2023-07-28T08:30:18;100421.56;;;24.63;44.03
81937;BME280;71432;56.558;9.036;2023-07-28T08:32:43;100423.06;;;24.66;42.57
81937;BME280;71432;56.558;9.036;2023-07-28T08:35:09;100426.69;;;24.65;43.61
81937;BME280;71432;56.558;9.036;2023-07-28T08:37:35;100423.53;;;24.69;42.67
81937;BME280;71432;56.558;9.036;2023-07-28T08:40:01;100426.16;;;24.69;42.66
81937;BME280;71432;56.558;9.036;2023-07-28T08:42:38;100422.53;;;24.70;42.42
81937;BME280;71432;56.558;9.036;2023-07-28T08:45:05;100429.28;;;24.73;41.55
81937;BME280;71432;56.558;9.036;2023-07-28T08:47:32;100427.91;;;24.77;41.55
81937;BME280;71432;56.558;9.036;2023-07-28T08:49:57;100432.38;;;24.76;40.73
81937;BME280;71432;56.558;9.036;2023-07-28T08:52:23;100428.09;;;24.75;39.89
81937;BME280;71432;56.558;9.036;2023-07-28T08:54:49;100436.06;;;24.75;39.77
81937;BME280;71432;56.558;9.036;2023-07-28T08:57:15;100438.22;;;24.72;38.75
81937;BME280;71432;56.558;9.036;2023-07-28T08:59:42;100431.47;;;24.69;39.30
81937;BME280;71432;56.558;9.036;2023-07-28T09:02:21;100433.16;;;24.62;39.22
81937;BME280;71432;56.558;9.036;2023-07-28T09:04:50;100434.94;;;24.70;39.31
81937;BME280;71432;56.558;9.036;2023-07-28T09:07:15;100436.59;;;24.71;39.58
81937;BME280;71432;56.558;9.036;2023-07-28T09:09:46;100437.75;;;24.68;38.97
81937;BME280;71432;56.558;9.036;2023-07-28T09:12:11;100435.00;;;24.62;39.36
81937;BME280;71432;56.558;9.036;2023-07-28T09:14:37;100435.81;;;24.62;39.10
81937;BME280;71432;56.558;9.036;2023-07-28T09:17:09;100433.81;;;24.64;38.92
81937;BME280;71432;56.558;9.036;2023-07-28T09:22:17;100431.53;;;24.61;38.86
81937;BME280;71432;56.558;9.036;2023-07-28T09:24:43;100439.47;;;24.61;38.74
81937;BME280;71432;56.558;9.036;2023-07-28T09:27:22;100444.25;;;24.66;39.11
81937;BME280;71432;56.558;9.036;2023-07-28T09:29:49;100444.03;;;24.67;38.64
81937;BME280;71432;56.558;9.036;2023-07-28T09:32:15;100448.25;;;24.62;38.34
81937;BME280;71432;56.558;9.036;2023-07-28T09:34:40;100454.16;;;24.64;38.07
81937;BME280;71432;56.558;9.036;2023-07-28T09:37:09;100449.25;;;24.61;38.30
81937;BME280;71432;56.558;9.036;2023-07-28T09:39:36;100453.00;;;24.66;39.06
81937;BME280;71432;56.558;9.036;2023-07-28T09:42:01;100451.97;;;24.67;38.72
81937;BME280;71432;56.558;9.036;2023-07-28T09:44:27;100458.47;;;24.65;38.62
81937;BME280;71432;56.558;9.036;2023-07-28T09:46:54;100455.00;;;24.64;38.85
81937;BME280;71432;56.558;9.036;2023-07-28T09:52:05;100455.34;;;24.61;38.63
81937;BME280;71432;56.558;9.036;2023-07-28T09:54:34;100453.88;;;24.59;37.94
81937;BME280;71432;56.558;9.036;2023-07-28T09:57:04;100454.69;;;24.59;38.04
81937;BME280;71432;56.558;9.036;2023-07-28T09:59:37;100452.06;;;24.59;38.24
81937;BME280;71432;56.558;9.036;2023-07-28T10:02:03;100452.59;;;24.55;38.04
81937;BME280;71432;56.558;9.036;2023-07-28T10:04:29;100457.34;;;24.59;38.10
81937;BME280;71432;56.558;9.036;2023-07-28T10:07:00;100460.66;;;24.61;38.25
81937;BME280;71432;56.558;9.036;2023-07-28T10:09:28;100459.00;;;24.60;38.06
81937;BME280;71432;56.558;9.036;2023-07-28T10:11:55;100457.72;;;24.56;37.70
81937;BME280;71432;56.558;9.036;2023-07-28T10:14:28;100467.09;;;24.59;37.85
81937;BME280;71432;56.558;9.036;2023-07-28T10:16:58;100461.00;;;24.58;38.24
81937;BME280;71432;56.558;9.036;2023-07-28T10:19:36;100462.28;;;24.62;39.06
81937;BME280;71432;56.558;9.036;2023-07-28T10:22:09;100462.94;;;24.64;39.20
81937;BME280;71432;56.558;9.036;2023-07-28T10:27:44;100466.78;;;24.62;39.99
81937;BME280;71432;56.558;9.036;2023-07-28T10:30:11;100465.75;;;24.63;39.47
81937;BME280;71432;56.558;9.036;2023-07-28T10:32:39;100454.88;;;24.58;39.72
81937;BME280;71432;56.558;9.036;2023-07-28T10:37:45;100469.41;;;24.62;40.25
81937;BME280;71432;56.558;9.036;2023-07-28T10:40:30;100472.22;;;24.60;39.75
81937;BME280;71432;56.558;9.036;2023-07-28T10:42:57;100479.63;;;24.65;39.85
81937;BME280;71432;56.558;9.036;2023-07-28T10:45:25;100482.13;;;24.66;40.12
81937;BME280;71432;56.558;9.036;2023-07-28T10:47:54;100478.44;;;24.67;39.52
81937;BME280;71432;56.558;9.036;2023-07-28T10:50:21;100477.16;;;24.63;39.43
81937;BME280;71432;56.558;9.036;2023-07-28T10:52:47;100474.72;;;24.62;39.64
81937;BME280;71432;56.558;9.036;2023-07-28T10:55:20;100482.44;;;24.63;39.63
81937;BME280;71432;56.558;9.036;2023-07-28T10:57:48;100475.34;;;24.64;39.86
81937;BME280;71432;56.558;9.036;2023-07-28T11:00:15;100484.56;;;24.68;40.42
81937;BME280;71432;56.558;9.036;2023-07-28T11:02:46;100479.94;;;24.70;39.88
81937;BME280;71432;56.558;9.036;2023-07-28T11:05:18;100479.63;;;24.65;40.49
81937;BME280;71432;56.558;9.036;2023-07-28T11:07:43;100489.22;;;24.66;39.77
81937;BME280;71432;56.558;9.036;2023-07-28T11:10:13;100485.63;;;24.59;39.94
81937;BME280;71432;56.558;9.036;2023-07-28T11:12:40;100484.63;;;24.60;40.07
81937;BME280;71432;56.558;9.036;2023-07-28T11:15:08;100485.09;;;24.63;39.64
81937;BME280;71432;56.558;9.036;2023-07-28T11:17:39;100487.94;;;24.62;39.54
81937;BME280;71432;56.558;9.036;2023-07-28T11:20:17;100485.81;;;24.57;39.76
81937;BME280;71432;56.558;9.036;2023-07-28T11:22:46;100481.69;;;24.55;39.87
81937;BME280;71432;56.558;9.036;2023-07-28T11:25:12;100480.53;;;24.57;40.03
81937;BME280;71432;56.558;9.036;2023-07-28T11:27:38;100482.81;;;24.60;39.74
81937;BME280;71432;56.558;9.036;2023-07-28T11:30:07;100480.16;;;24.60;40.24
81937;BME280;71432;56.558;9.036;2023-07-28T11:32:36;100488.75;;;24.62;40.67
81937;BME280;71432;56.558;9.036;2023-07-28T11:35:06;100489.41;;;24.64;41.52
81937;BME280;71432;56.558;9.036;2023-07-28T11:37:33;100479.34;;;24.60;41.26
81937;BME280;71432;56.558;9.036;2023-07-28T11:40:03;100476.53;;;24.61;40.82
81937;BME280;71432;56.558;9.036;2023-07-28T11:42:35;100481.09;;;24.67;40.96
81937;BME280;71432;56.558;9.036;2023-07-28T11:45:03;100475.34;;;24.64;40.69
81937;BME280;71432;56.558;9.036;2023-07-28T11:47:29;100480.00;;;24.62;40.92
81937;BME280;71432;56.558;9.036;2023-07-28T11:49:55;100481.28;;;24.66;41.45
81937;BME280;71432;56.558;9.036;2023-07-28T11:52:24;100487.81;;;24.78;41.33
81937;BME280;71432;56.558;9.036;2023-07-28T11:54:51;100486.91;;;24.86;41.29
81937;BME280;71432;56.558;9.036;2023-07-28T11:57:17;100480.78;;;24.93;40.19
81937;BME280;71432;56.558;9.036;2023-07-28T11:59:43;100490.69;;;24.91;40.22
81937;BME280;71432;56.558;9.036;2023-07-28T12:02:09;100492.53;;;24.91;40.13
81937;BME280;71432;56.558;9.036;2023-07-28T12:04:37;100485.41;;;24.91;39.48
81937;BME280;71432;56.558;9.036;2023-07-28T12:09:46;100492.72;;;25.04;39.84
81937;BME280;71432;56.558;9.036;2023-07-28T12:12:21;100499.16;;;25.09;39.48
81937;BME280;71432;56.558;9.036;2023-07-28T12:14:48;100495.50;;;25.10;38.16
81937;BME280;71432;56.558;9.036;2023-07-28T12:17:22;100504.06;;;25.12;38.75
81937;BME280;71432;56.558;9.036;2023-07-28T12:19:58;100507.84;;;25.18;38.21
81937;BME280;71432;56.558;9.036;2023-07-28T12:22:24;100508.66;;;25.18;38.31
81937;BME280;71432;56.558;9.036;2023-07-28T12:24:49;100502.75;;;25.16;38.07
81937;BME280;71432;56.558;9.036;2023-07-28T12:27:14;100505.19;;;25.18;37.85
81937;BME280;71432;56.558;9.036;2023-07-28T12:29:41;100500.34;;;25.21;37.80
81937;BME280;71432;56.558;9.036;2023-07-28T12:32:06;100499.34;;;25.22;37.61
81937;BME280;71432;56.558;9.036;2023-07-28T12:34:32;100506.47;;;25.22;38.22
81937;BME280;71432;56.558;9.036;2023-07-28T12:36:58;100507.28;;;25.22;38.52
81937;BME280;71432;56.558;9.036;2023-07-28T12:39:23;100503.66;;;25.23;38.27
81937;BME280;71432;56.558;9.036;2023-07-28T12:41:49;100506.75;;;25.27;37.79
81937;BME280;71432;56.558;9.036;2023-07-28T12:44:14;100502.13;;;25.29;38.02
81937;BME280;71432;56.558;9.036;2023-07-28T12:46:40;100504.66;;;25.22;37.46
81937;BME280;71432;56.558;9.036;2023-07-28T12:49:05;100508.41;;;25.28;37.85
81937;BME280;71432;56.558;9.036;2023-07-28T12:51:32;100514.69;;;25.27;37.75
81937;BME280;71432;56.558;9.036;2023-07-28T12:53:57;100503.47;;;25.25;38.13
81937;BME280;71432;56.558;9.036;2023-07-28T12:56:23;100507.03;;;25.32;37.88
81937;BME280;71432;56.558;9.036;2023-07-28T12:58:48;100505.78;;;25.43;37.79
81937;BME280;71432;56.558;9.036;2023-07-28T13:01:14;100499.91;;;25.33;37.03
81937;BME280;71432;56.558;9.036;2023-07-28T13:03:39;100514.44;;;25.37;37.12
81937;BME280;71432;56.558;9.036;2023-07-28T13:06:04;100509.22;;;25.29;37.27
81937;BME280;71432;56.558;9.036;2023-07-28T13:08:30;100513.72;;;25.28;37.45